Time;durP1;ratioP1;P1;durP2;ratioP2;P2;SDS_P1;SDS_P2;PMS_P1;PMS_P2;Temp;Humidity;BMP_temperature;BMP_pressure;BME280_temperature;BME280_humidity;BME280_pressure;Samples;Min_cycle;Max_cycle;Signal;HPM_P1;HPM_P2
2023/09/20 00:01:50;;;;;;;6.30;3.03;;;16.70;1.00;;;;;;5115542;28;20430;-80
2023/09/20 00:04:17;;;;;;;4.13;2.40;;;16.70;1.00;;;;;;5110137;27;20469;-81
2023/09/20 00:06:45;;;;;;;3.83;2.40;;;16.70;1.00;;;;;;5114097;27;20937;-81
2023/09/20 00:09:14;;;;;;;4.90;2.83;;;16.70;1.00;;;;;;5108843;27;20473;-81
2023/09/20 00:11:44;;;;;;;4.57;3.00;;;16.70;1.00;;;;;;5111707;27;20454;-81
2023/09/20 00:14:11;;;;;;;10.77;3.40;;;16.70;1.00;;;;;;5112695;27;20462;-82
2023/09/20 00:16:39;;;;;;;6.83;3.30;;;16.70;1.00;;;;;;5112181;27;20465;-78
2023/09/20 00:19:06;;;;;;;3.80;2.63;;;16.60;1.00;;;;;;5110775;27;20916;-78
2023/09/20 00:21:33;;;;;;;3.43;3.00;;;16.60;1.00;;;;;;5113060;28;20832;-79
2023/09/20 00:24:00;;;;;;;5.83;2.80;;;16.50;1.00;;;;;;5110781;27;20465;-78
2023/09/20 00:26:28;;;;;;;5.73;3.30;;;16.40;1.00;;;;;;5108465;27;20966;-78
2023/09/20 00:29:04;;;;;;;3.60;2.40;;;16.40;1.00;;;;;;5112068;27;21003;-78
2023/09/20 00:31:32;;;;;;;5.43;3.00;;;16.30;1.00;;;;;;5107814;27;20522;-79
2023/09/20 00:33:58;;;;;;;4.77;3.00;;;16.30;1.00;;;;;;5109650;28;20464;-79
2023/09/20 00:36:25;;;;;;;5.47;3.23;;;16.30;1.00;;;;;;5110896;28;20540;-78
2023/09/20 00:38:53;;;;;;;7.73;4.40;;;16.30;1.00;;;;;;5108470;27;20527;-78
2023/09/20 00:41:21;;;;;;;4.97;2.70;;;16.30;1.00;;;;;;5109350;27;20474;-78
2023/09/20 00:43:49;;;;;;;7.70;3.50;;;16.30;1.00;;;;;;5111024;27;20457;-78
2023/09/20 00:46:20;;;;;;;4.73;3.40;;;16.30;1.00;;;;;;5089385;27;20501;-77
2023/09/20 00:48:48;;;;;;;3.33;2.90;;;16.30;1.00;;;;;;5112499;27;20476;-77
2023/09/20 00:51:16;;;;;;;3.70;3.10;;;16.20;1.00;;;;;;5108816;27;20487;-78
2023/09/20 00:53:44;;;;;;;4.80;2.77;;;16.20;1.00;;;;;;5110627;27;20455;-78
2023/09/20 00:56:12;;;;;;;5.37;3.47;;;16.20;1.00;;;;;;5109003;27;20955;-77
2023/09/20 00:58:40;;;;;;;5.50;3.30;;;16.10;1.00;;;;;;5108452;27;20478;-77
2023/09/20 01:01:07;;;;;;;4.80;3.03;;;16.10;1.00;;;;;;5112261;27;20500;-78
2023/09/20 01:03:36;;;;;;;4.40;2.73;;;16.10;1.00;;;;;;5109360;27;20428;-78
2023/09/20 01:06:08;;;;;;;3.37;2.60;;;16.10;1.00;;;;;;5112621;27;20473;-77
2023/09/20 01:08:35;;;;;;;3.33;2.40;;;16.10;1.00;;;;;;5111917;27;20433;-78
2023/09/20 01:11:03;;;;;;;3.83;2.77;;;16.10;1.00;;;;;;5109698;28;20923;-79
2023/09/20 01:13:30;;;;;;;5.57;2.50;;;16.10;1.00;;;;;;5105149;27;20544;-78
2023/09/20 01:15:58;;;;;;;3.67;2.50;;;16.10;1.00;;;;;;5105185;27;20470;-78
2023/09/20 01:18:27;;;;;;;4.27;2.87;;;16.00;1.00;;;;;;5105413;27;20470;-78
2023/09/20 01:20:55;;;;;;;2.90;2.60;;;16.00;1.00;;;;;;5103799;27;21000;-79
2023/09/20 01:23:23;;;;;;;4.40;2.37;;;16.00;1.00;;;;;;5095039;27;20883;-79
2023/09/20 01:25:51;;;;;;;5.83;2.80;;;15.90;1.00;;;;;;5103594;27;20977;-79
2023/09/20 01:28:17;;;;;;;5.10;2.77;;;16.00;1.00;;;;;;5106943;27;20461;-79
2023/09/20 01:30:49;;;;;;;4.87;3.07;;;15.90;1.00;;;;;;5106499;27;20476;-79
2023/09/20 01:33:17;;;;;;;6.27;2.90;;;15.90;1.00;;;;;;5104821;27;20453;-79
2023/09/20 01:35:45;;;;;;;5.33;2.83;;;15.90;1.00;;;;;;5103928;27;20464;-79
2023/09/20 01:38:12;;;;;;;4.07;3.07;;;16.00;1.00;;;;;;5083749;27;20547;-80
2023/09/20 01:40:41;;;;;;;5.77;2.90;;;16.00;1.00;;;;;;5100803;27;21098;-80
2023/09/20 01:43:08;;;;;;;4.17;2.33;;;16.00;1.00;;;;;;5105823;27;20484;-79
2023/09/20 01:45:36;;;;;;;4.63;2.57;;;16.00;1.00;;;;;;5101236;27;20458;-80
2023/09/20 01:48:06;;;;;;;2.90;2.27;;;16.00;1.00;;;;;;5104219;27;20579;-80
2023/09/20 01:50:34;;;;;;;4.97;2.63;;;16.00;1.00;;;;;;5085455;27;20481;-79
2023/09/20 01:53:05;;;;;;;4.40;2.80;;;16.00;1.00;;;;;;5103850;27;20881;-79
2023/09/20 01:55:32;;;;;;;3.53;2.53;;;16.00;1.00;;;;;;5109578;27;20445;-79
2023/09/20 01:58:03;;;;;;;3.30;2.60;;;16.00;1.00;;;;;;5106268;27;20573;-79
2023/09/20 02:00:36;;;;;;;5.50;3.00;;;16.00;1.00;;;;;;5106739;27;20820;-78
2023/09/20 02:03:08;;;;;;;4.10;2.97;;;16.00;1.00;;;;;;5110087;27;20461;-79
2023/09/20 02:05:36;;;;;;;5.90;2.83;;;16.00;1.00;;;;;;5108223;27;20487;-79
2023/09/20 02:08:05;;;;;;;4.20;3.03;;;16.00;1.00;;;;;;5114038;28;20560;-78
2023/09/20 02:10:33;;;;;;;6.87;3.27;;;16.00;1.00;;;;;;5114835;27;20477;-78
2023/09/20 02:13:01;;;;;;;4.67;3.07;;;16.00;1.00;;;;;;5113278;27;21046;-78
2023/09/20 02:15:31;;;;;;;4.53;2.90;;;16.00;1.00;;;;;;5111572;27;20540;-78
2023/09/20 02:17:59;;;;;;;4.73;3.00;;;16.00;1.00;;;;;;5114482;27;20491;-78
2023/09/20 02:20:26;;;;;;;4.03;2.60;;;16.00;1.00;;;;;;5113900;27;20432;-79
2023/09/20 02:22:55;;;;;;;4.27;2.43;;;16.10;1.00;;;;;;5113099;27;20536;-78
2023/09/20 02:25:24;;;;;;;4.87;2.90;;;16.10;1.00;;;;;;5115538;27;21967;-79
2023/09/20 02:27:53;;;;;;;6.70;3.10;;;16.20;1.00;;;;;;5113537;27;20469;-78
2023/09/20 02:30:24;;;;;;;2.67;2.40;;;16.20;1.00;;;;;;5106010;28;20558;-79
2023/09/20 02:32:57;;;;;;;5.37;2.60;;;16.20;1.00;;;;;;5114009;27;20473;-79
2023/09/20 02:35:25;;;;;;;5.83;2.80;;;16.20;1.00;;;;;;5113186;28;20918;-78
2023/09/20 02:37:53;;;;;;;3.60;2.83;;;16.20;1.00;;;;;;5111893;28;20472;-77
2023/09/20 02:40:23;;;;;;;6.80;2.67;;;16.20;1.00;;;;;;5114738;28;20484;-77
2023/09/20 02:42:54;;;;;;;3.93;3.10;;;16.20;1.00;;;;;;5113028;27;20547;-77
2023/09/20 02:45:23;;;;;;;5.47;2.80;;;16.20;1.00;;;;;;5114946;27;20927;-77
2023/09/20 02:47:51;;;;;;;4.40;2.57;;;16.10;1.00;;;;;;5107653;27;20469;-77
2023/09/20 02:50:22;;;;;;;5.83;3.73;;;16.20;1.00;;;;;;5106758;27;20461;-78
2023/09/20 02:52:49;;;;;;;5.80;2.90;;;16.20;1.00;;;;;;5109996;27;20474;-77
2023/09/20 02:55:20;;;;;;;4.07;2.70;;;16.30;1.00;;;;;;5113128;27;21254;-77
2023/09/20 02:57:49;;;;;;;4.90;2.63;;;16.30;1.00;;;;;;5113585;27;20527;-78
2023/09/20 03:00:21;;;;;;;4.63;2.50;;;16.40;1.00;;;;;;5113370;27;20485;-77
2023/09/20 03:02:50;;;;;;;6.23;2.67;;;16.40;1.00;;;;;;5110936;28;20468;-76
2023/09/20 03:05:21;;;;;;;4.47;2.47;;;16.40;1.00;;;;;;5112329;27;21267;-76
2023/09/20 03:07:49;;;;;;;3.50;2.53;;;16.30;1.00;;;;;;5111010;27;20469;-77
2023/09/20 03:10:19;;;;;;;3.70;2.80;;;16.30;1.00;;;;;;5112763;27;20434;-77
2023/09/20 03:12:47;;;;;;;4.70;3.13;;;16.30;1.00;;;;;;5114781;27;20449;-77
2023/09/20 03:15:17;;;;;;;4.70;2.80;;;16.20;1.00;;;;;;5113699;27;20457;-76
2023/09/20 03:17:44;;;;;;;4.00;2.53;;;16.20;1.00;;;;;;5110691;27;20476;-77
2023/09/20 03:20:16;;;;;;;3.30;2.37;;;16.20;1.00;;;;;;5108539;27;20464;-78
2023/09/20 03:22:43;;;;;;;3.80;3.37;;;16.20;1.00;;;;;;5112542;28;20495;-77
2023/09/20 03:25:11;;;;;;;4.47;3.07;;;16.20;1.00;;;;;;5106973;27;20504;-78
2023/09/20 03:27:42;;;;;;;6.10;3.10;;;16.20;1.00;;;;;;5106916;27;20530;-77
2023/09/20 03:30:11;;;;;;;4.27;2.50;;;16.30;1.00;;;;;;5107318;27;20951;-76
2023/09/20 03:32:39;;;;;;;5.47;3.27;;;16.20;1.00;;;;;;5106219;27;20830;-76
2023/09/20 03:35:07;;;;;;;6.13;3.20;;;16.20;1.00;;;;;;5109201;27;20841;-76
2023/09/20 03:37:38;;;;;;;6.30;3.33;;;16.20;1.00;;;;;;5107941;27;20858;-78
2023/09/20 03:40:10;;;;;;;3.87;3.20;;;16.20;1.00;;;;;;5109316;27;20540;-77
2023/09/20 03:42:38;;;;;;;5.37;4.30;;;16.20;1.00;;;;;;5112250;28;20472;-79
2023/09/20 03:45:07;;;;;;;4.50;3.60;;;16.20;1.00;;;;;;5113255;28;20547;-77
2023/09/20 03:47:34;;;;;;;3.80;2.83;;;16.30;1.00;;;;;;5111931;28;20547;-79
2023/09/20 03:50:01;;;;;;;4.87;2.83;;;16.20;1.00;;;;;;5115033;27;20481;-79
2023/09/20 03:52:28;;;;;;;5.93;2.87;;;16.30;1.00;;;;;;5108840;27;20465;-80
2023/09/20 03:54:57;;;;;;;4.07;2.63;;;16.30;1.00;;;;;;5113863;27;20886;-79
2023/09/20 03:57:25;;;;;;;4.07;2.63;;;16.20;1.00;;;;;;5113129;28;20477;-80
2023/09/20 03:59:52;;;;;;;3.80;2.90;;;16.20;1.00;;;;;;5111458;27;20595;-79
2023/09/20 04:02:19;;;;;;;3.27;2.53;;;16.30;1.00;;;;;;5110860;27;21257;-78
2023/09/20 04:04:47;;;;;;;5.73;3.77;;;16.20;1.00;;;;;;5105092;28;20506;-78
2023/09/20 04:07:15;;;;;;;5.13;2.73;;;16.20;1.00;;;;;;5112624;28;20442;-79
2023/09/20 04:09:44;;;;;;;3.50;2.60;;;16.10;1.00;;;;;;5107353;28;20445;-80
2023/09/20 04:12:16;;;;;;;2.87;2.67;;;16.20;1.00;;;;;;5091843;27;20461;-79
2023/09/20 04:14:43;;;;;;;3.43;2.67;;;16.20;1.00;;;;;;5113994;27;20541;-80
2023/09/20 04:17:10;;;;;;;4.77;2.87;;;16.20;1.00;;;;;;5110124;27;20492;-80
2023/09/20 04:19:39;;;;;;;5.50;3.37;;;16.20;1.00;;;;;;5114618;27;20499;-80
2023/09/20 04:22:06;;;;;;;4.87;3.30;;;16.20;1.00;;;;;;5093029;28;20829;-80
2023/09/20 04:24:33;;;;;;;3.40;3.10;;;16.20;1.00;;;;;;5110955;27;20449;-80
2023/09/20 04:27:02;;;;;;;4.80;2.60;;;16.10;1.00;;;;;;5113189;28;20503;-80
2023/09/20 04:29:32;;;;;;;6.17;2.53;;;16.10;1.00;;;;;;5108287;27;20460;-80
2023/09/20 04:31:59;;;;;;;4.90;2.73;;;16.10;1.00;;;;;;5111528;27;20511;-79
2023/09/20 04:34:26;;;;;;;5.00;2.73;;;16.00;1.00;;;;;;5103881;27;20442;-79
2023/09/20 04:36:53;;;;;;;4.30;2.70;;;16.00;1.00;;;;;;5107630;28;20523;-79
2023/09/20 04:39:21;;;;;;;3.70;2.80;;;15.90;1.00;;;;;;5111818;27;20430;-82
2023/09/20 04:41:48;;;;;;;8.40;3.43;;;16.00;1.00;;;;;;5113713;27;20469;-82
2023/09/20 04:44:16;;;;;;;3.90;2.73;;;15.90;1.00;;;;;;5109930;27;20515;-81
2023/09/20 04:46:46;;;;;;;5.97;3.50;;;15.90;1.00;;;;;;5102194;27;20534;-84
2023/09/20 04:49:13;;;;;;;3.67;2.40;;;15.90;1.00;;;;;;5110853;28;20433;-80
2023/09/20 04:51:40;;;;;;;6.93;3.00;;;15.90;1.00;;;;;;5109850;28;20446;-81
2023/09/20 04:54:08;;;;;;;3.97;2.80;;;15.90;1.00;;;;;;5096404;28;21169;-81
2023/09/20 04:56:36;;;;;;;3.50;2.50;;;15.90;1.00;;;;;;5112771;27;20457;-77
2023/09/20 04:59:04;;;;;;;4.00;2.53;;;15.90;1.00;;;;;;5112954;27;20429;-78
2023/09/20 05:01:31;;;;;;;6.10;4.67;;;15.90;1.00;;;;;;5104644;27;20473;-78
2023/09/20 05:04:06;;;;;;;3.93;3.40;;;15.90;1.00;;;;;;5111665;28;20548;-79
2023/09/20 05:06:33;;;;;;;4.60;2.20;;;15.90;1.00;;;;;;5111932;27;20473;-80
2023/09/20 05:09:00;;;;;;;5.33;3.17;;;16.00;1.00;;;;;;5111083;28;20454;-79
2023/09/20 05:11:27;;;;;;;3.93;3.00;;;15.90;1.00;;;;;;5111187;28;20492;-78
2023/09/20 05:13:54;;;;;;;4.80;3.03;;;15.90;1.00;;;;;;5110367;28;20484;-79
2023/09/20 05:16:21;;;;;;;5.47;3.47;;;16.00;1.00;;;;;;5108720;27;20844;-78
2023/09/20 05:18:48;;;;;;;4.80;3.20;;;15.90;1.00;;;;;;5113178;27;20930;-79
2023/09/20 05:21:17;;;;;;;9.03;2.70;;;15.90;1.00;;;;;;5109809;28;20905;-79
2023/09/20 05:23:44;;;;;;;3.93;2.83;;;15.90;1.00;;;;;;5106717;28;21993;-79
2023/09/20 05:26:11;;;;;;;2.80;2.57;;;15.90;1.00;;;;;;5112173;27;21025;-79
2023/09/20 05:28:38;;;;;;;5.93;3.27;;;15.90;1.00;;;;;;5112183;27;20485;-79
2023/09/20 05:31:05;;;;;;;3.40;3.07;;;15.90;1.00;;;;;;5115748;28;20457;-79
2023/09/20 05:33:32;;;;;;;5.43;3.13;;;15.90;1.00;;;;;;5113604;28;20891;-82
2023/09/20 05:35:59;;;;;;;7.40;3.60;;;15.90;1.00;;;;;;5113299;27;20476;-80
2023/09/20 05:38:28;;;;;;;3.07;2.60;;;16.00;1.00;;;;;;5096448;28;20973;-80
2023/09/20 05:40:55;;;;;;;4.40;2.90;;;16.10;1.00;;;;;;5114534;28;20511;-79
2023/09/20 05:43:22;;;;;;;5.20;3.17;;;16.10;1.00;;;;;;5113175;28;20465;-79
2023/09/20 05:45:52;;;;;;;4.70;2.80;;;16.10;1.00;;;;;;5116265;28;20461;-78
2023/09/20 05:48:20;;;;;;;5.00;2.97;;;16.20;1.00;;;;;;5115491;27;20464;-80
2023/09/20 05:50:50;;;;;;;5.00;3.23;;;16.20;1.00;;;;;;5112725;27;20539;-79
2023/09/20 05:53:17;;;;;;;4.47;3.20;;;16.20;1.00;;;;;;5115344;27;20519;-79
2023/09/20 05:55:47;;;;;;;2.60;2.40;;;16.20;1.00;;;;;;5102889;27;20534;-79
2023/09/20 05:58:15;;;;;;;5.70;3.10;;;16.20;1.00;;;;;;5111731;27;20454;-79
2023/09/20 06:00:42;;;;;;;6.07;3.47;;;16.20;1.00;;;;;;5113455;27;20530;-80
2023/09/20 06:03:11;;;;;;;4.37;3.03;;;16.20;1.00;;;;;;5114922;27;20454;-79
2023/09/20 06:05:39;;;;;;;5.13;2.87;;;16.30;1.00;;;;;;5116940;27;20841;-79
2023/09/20 06:08:07;;;;;;;3.27;2.57;;;16.30;1.00;;;;;;5118224;27;20541;-79
2023/09/20 06:10:34;;;;;;;4.80;2.70;;;16.40;1.00;;;;;;5114420;27;20453;-79
2023/09/20 06:13:08;;;;;;;4.70;3.40;;;16.50;1.00;;;;;;5115179;27;20483;-79
2023/09/20 06:15:37;;;;;;;3.63;3.30;;;16.50;1.00;;;;;;5112237;27;20466;-79
2023/09/20 06:18:04;;;;;;;3.47;2.87;;;16.50;1.00;;;;;;5111888;27;21305;-79
2023/09/20 06:20:31;;;;;;;3.27;2.57;;;16.60;1.00;;;;;;5107306;27;21487;-78
2023/09/20 06:22:58;;;;;;;3.53;2.87;;;16.60;1.00;;;;;;5114225;27;20461;-79
2023/09/20 06:25:25;;;;;;;4.40;2.77;;;16.60;1.00;;;;;;5115568;27;20508;-78
2023/09/20 06:27:55;;;;;;;6.13;2.90;;;16.70;1.00;;;;;;5109414;27;21670;-78
2023/09/20 06:30:24;;;;;;;3.27;2.50;;;16.80;1.00;;;;;;5104585;27;20461;-76
2023/09/20 06:32:51;;;;;;;3.40;2.50;;;16.80;1.00;;;;;;5106206;27;20452;-79
2023/09/20 06:35:20;;;;;;;4.60;2.97;;;16.80;1.00;;;;;;5108054;27;20488;-78
2023/09/20 06:37:47;;;;;;;4.87;3.43;;;16.90;1.00;;;;;;5105720;27;20480;-75
2023/09/20 06:40:22;;;;;;;3.47;3.00;;;16.90;1.00;;;;;;5092065;28;20450;-75
2023/09/20 06:42:51;;;;;;;3.33;2.90;;;17.00;1.00;;;;;;5109620;27;20462;-76
2023/09/20 06:45:19;;;;;;;5.40;3.03;;;17.10;1.00;;;;;;5112400;27;20473;-77
2023/09/20 06:47:47;;;;;;;2.57;2.37;;;17.30;1.00;;;;;;5113692;27;20451;-79
2023/09/20 06:50:14;;;;;;;6.43;2.73;;;17.30;1.00;;;;;;5107427;27;20485;-77
2023/09/20 06:52:51;;;;;;;5.00;2.90;;;17.40;1.00;;;;;;5112236;28;20537;-79
2023/09/20 06:55:19;;;;;;;3.60;2.47;;;17.60;1.00;;;;;;5108496;27;21006;-78
2023/09/20 06:57:47;;;;;;;4.60;2.80;;;17.70;1.00;;;;;;5110192;27;20510;-80
2023/09/20 07:00:21;;;;;;;3.00;2.17;;;17.70;1.00;;;;;;5111556;27;22289;-77
2023/09/20 07:02:51;;;;;;;3.10;2.80;;;17.80;1.00;;;;;;5093775;27;20558;-79
2023/09/20 07:05:18;;;;;;;5.40;3.20;;;18.00;1.00;;;;;;5092997;28;20909;-77
2023/09/20 07:07:46;;;;;;;5.33;2.90;;;18.10;1.00;;;;;;5094243;28;20953;-77
2023/09/20 07:10:17;;;;;;;4.10;2.73;;;18.30;1.00;;;;;;5110479;28;20457;-77
2023/09/20 07:12:46;;;;;;;4.47;2.33;;;18.40;1.00;;;;;;5114038;27;20542;-76
2023/09/20 07:15:18;;;;;;;4.83;2.63;;;18.60;1.00;;;;;;5113034;27;20543;-76
2023/09/20 07:17:50;;;;;;;3.77;2.43;;;18.70;1.00;;;;;;5110615;27;20489;-77
2023/09/20 07:20:18;;;;;;;4.83;2.60;;;18.90;1.00;;;;;;5110617;27;20470;-76
2023/09/20 07:22:48;;;;;;;3.23;2.23;;;19.00;1.00;;;;;;5111322;28;20554;-77
2023/09/20 07:25:19;;;;;;;3.17;2.53;;;19.00;1.00;;;;;;5112311;27;20557;-77
2023/09/20 07:27:47;;;;;;;3.70;2.50;;;19.20;1.00;;;;;;5112554;27;20972;-78
2023/09/20 07:30:18;;;;;;;4.27;2.17;;;19.30;1.00;;;;;;5108637;28;20467;-79
2023/09/20 07:32:46;;;;;;;6.17;2.97;;;19.40;1.00;;;;;;5111124;28;20514;-79
2023/09/20 07:35:26;;;;;;;2.13;1.93;;;19.50;1.00;;;;;;5109882;27;20467;-81
2023/09/20 07:37:59;;;;;;;3.33;2.67;;;19.60;1.00;;;;;;5114000;27;20458;-82
2023/09/20 07:40:30;;;;;;;4.07;2.40;;;19.70;1.00;;;;;;5112877;27;20412;-85
2023/09/20 07:43:04;;;;;;;3.53;3.20;;;19.80;1.00;;;;;;5098952;28;20461;-83
2023/09/20 07:45:34;;;;;;;3.83;2.43;;;20.00;1.00;;;;;;5099325;27;20472;-84
2023/09/20 07:48:02;;;;;;;3.50;2.20;;;19.90;1.00;;;;;;5117775;27;20543;-85
2023/09/20 07:50:30;;;;;;;4.33;2.40;;;20.00;1.00;;;;;;5114639;27;20456;-84
2023/09/20 07:53:00;;;;;;;8.03;3.10;;;20.10;1.00;;;;;;5106386;27;20578;-84
2023/09/20 07:55:31;;;;;;;3.37;2.40;;;20.20;1.00;;;;;;5115009;27;20485;-86
2023/09/20 07:57:58;;;;;;;3.70;2.43;;;20.30;1.00;;;;;;5118386;27;20558;-86
2023/09/20 08:00:26;;;;;;;4.00;2.30;;;20.40;1.00;;;;;;5113957;27;20524;-84
2023/09/20 08:02:54;;;;;;;4.07;2.27;;;20.50;1.00;;;;;;5110361;27;20567;-83
2023/09/20 08:05:23;;;;;;;7.57;2.83;;;20.60;1.00;;;;;;5109914;27;20450;-85
2023/09/20 08:07:51;;;;;;;4.07;2.60;;;20.70;1.00;;;;;;5114101;27;20408;-82
2023/09/20 08:10:20;;;;;;;3.43;2.50;;;20.90;1.00;;;;;;5104653;27;20306;-82
2023/09/20 08:12:47;;;;;;;2.70;2.20;;;21.00;1.00;;;;;;5108695;27;20569;-79
2023/09/20 08:15:14;;;;;;;4.50;2.70;;;21.00;1.00;;;;;;5112471;27;21419;-79
2023/09/20 08:20:27;;;;;;;5.33;2.70;;;21.20;1.00;;;;;;5110802;27;20599;-84
2023/09/20 09:01:44;;;;;;;4.50;2.57;;;22.10;1.00;;;;;;5089805;28;20531;-77
2023/09/20 09:04:13;;;;;;;6.27;2.70;;;22.20;1.00;;;;;;5106234;28;20463;-78
2023/09/20 09:06:41;;;;;;;2.93;2.10;;;22.60;1.00;;;;;;5110978;27;20886;-78
2023/09/20 09:09:11;;;;;;;3.20;2.03;;;23.00;1.00;;;;;;5111054;28;20523;-79
2023/09/20 09:11:38;;;;;;;6.20;2.27;;;23.50;1.00;;;;;;5108078;27;20578;-79
2023/09/20 09:14:07;;;;;;;3.83;2.17;;;24.50;1.00;;;;;;5110106;27;20456;-80
2023/09/20 09:16:35;;;;;;;5.27;1.80;;;25.30;1.00;;;;;;5109009;27;20464;-79
2023/09/20 09:19:02;;;;;;;3.93;2.30;;;26.40;1.00;;;;;;5107243;27;20472;-79
2023/09/20 09:21:31;;;;;;;4.33;2.40;;;26.70;1.00;;;;;;5112167;27;20533;-83
2023/09/20 09:23:59;;;;;;;4.77;2.57;;;26.70;1.00;;;;;;5108253;28;20455;-79
2023/09/20 09:26:26;;;;;;;2.93;2.20;;;26.60;1.00;;;;;;5108069;28;20475;-79
2023/09/20 09:28:54;;;;;;;4.40;2.63;;;26.40;1.00;;;;;;5091512;28;21063;-79
2023/09/20 09:31:22;;;;;;;2.80;2.60;;;25.90;1.00;;;;;;5103610;28;20883;-80
2023/09/20 09:33:53;;;;;;;2.47;2.03;;;25.30;1.00;;;;;;5110074;28;20614;-80
2023/09/20 09:36:19;;;;;;;6.37;2.67;;;24.70;1.00;;;;;;5109722;27;20462;-80
2023/09/20 09:38:49;;;;;;;2.97;2.67;;;24.20;1.00;;;;;;5114045;27;20474;-79
2023/09/20 09:41:18;;;;;;;6.60;2.60;;;23.90;1.00;;;;;;5113713;28;21614;-80
2023/09/20 09:43:58;;;;;;;5.40;2.10;;;23.70;1.00;;;;;;5109318;27;20977;-80
2023/09/20 09:46:27;;;;;;;3.23;1.77;;;23.50;1.00;;;;;;5103685;28;20566;-78
2023/09/20 09:48:54;;;;;;;6.63;2.60;;;23.40;1.00;;;;;;5106138;28;20875;-81
2023/09/20 09:51:23;;;;;;;3.70;2.20;;;23.20;1.00;;;;;;5110095;28;20458;-78
2023/09/20 09:53:50;;;;;;;6.10;2.77;;;23.20;1.00;;;;;;5087926;28;20466;-79
2023/09/20 09:56:18;;;;;;;5.37;2.30;;;23.30;1.00;;;;;;5106922;27;20421;-79
2023/09/20 09:58:46;;;;;;;3.90;2.00;;;23.20;1.00;;;;;;5108549;27;20939;-77
2023/09/20 10:01:15;;;;;;;3.63;2.33;;;23.40;1.00;;;;;;5107370;27;20455;-78
2023/09/20 10:03:49;;;;;;;3.87;2.50;;;23.90;1.00;;;;;;5107663;27;20452;-77
2023/09/20 10:06:22;;;;;;;5.43;2.90;;;24.70;1.00;;;;;;5107544;27;20463;-78
2023/09/20 10:08:56;;;;;;;4.47;2.50;;;25.20;1.00;;;;;;5108551;27;20593;-76
2023/09/20 10:11:25;;;;;;;2.90;1.80;;;25.70;1.00;;;;;;5107174;28;20953;-79
2023/09/20 10:13:54;;;;;;;6.00;3.07;;;26.80;1.00;;;;;;5106559;27;20458;-78
2023/09/20 10:16:24;;;;;;;4.60;2.30;;;27.60;1.00;;;;;;5110607;28;20471;-79
2023/09/20 10:19:04;;;;;;;5.00;2.10;;;28.30;1.00;;;;;;5112790;28;20539;-79
2023/09/20 10:21:32;;;;;;;3.73;2.37;;;28.40;1.00;;;;;;5097423;27;21014;-78
2023/09/20 10:24:02;;;;;;;4.13;2.17;;;28.30;1.00;;;;;;5110536;27;20460;-78
2023/09/20 10:26:34;;;;;;;3.03;2.07;;;28.30;1.00;;;;;;5111768;28;20461;-79
2023/09/20 10:29:23;;;;;;;5.43;2.20;;;29.20;1.00;;;;;;5107099;27;20467;-78
2023/09/20 10:31:54;;;;;;;2.43;1.90;;;30.10;1.00;;;;;;5110258;28;20821;-78
2023/09/20 10:34:26;;;;;;;3.07;2.03;;;30.80;1.00;;;;;;5108926;28;20546;-78
2023/09/20 10:36:55;;;;;;;4.83;2.20;;;30.90;1.00;;;;;;5110005;27;20548;-82
2023/09/20 10:39:24;;;;;;;3.77;2.30;;;31.00;1.00;;;;;;5112897;27;20505;-81
2023/09/20 10:41:52;;;;;;;2.43;2.10;;;31.60;1.00;;;;;;5114453;27;20441;-82
2023/09/20 10:44:29;;;;;;;2.73;2.00;;;31.50;1.00;;;;;;5114114;27;20828;-81
2023/09/20 10:46:58;;;;;;;2.53;1.73;;;31.10;1.00;;;;;;5111707;27;20468;-81
2023/09/20 10:49:51;;;;;;;4.33;2.50;;;31.40;1.00;;;;;;5113764;27;20622;-83
2023/09/20 10:52:59;;;;;;;7.33;2.30;;;31.80;1.00;;;;;;5108710;27;21226;-79
2023/09/20 10:55:35;;;;;;;5.80;2.60;;;32.40;1.00;;;;;;5081141;27;20465;-80
2023/09/20 10:58:03;;;;;;;8.13;2.50;;;33.80;1.00;;;;;;5110893;27;20552;-80
2023/09/20 11:00:34;;;;;;;3.80;1.83;;;34.60;1.00;;;;;;5098419;27;20555;-80
2023/09/20 11:03:06;;;;;;;2.30;2.00;;;34.60;1.00;;;;;;5115004;27;20461;-80
2023/09/20 11:05:36;;;;;;;8.13;3.10;;;35.00;1.00;;;;;;5113320;28;20477;-81
2023/09/20 11:08:07;;;;;;;3.90;1.87;;;35.90;1.00;;;;;;5113993;27;21091;-81
2023/09/20 11:10:34;;;;;;;4.37;1.90;;;36.20;1.00;;;;;;5111762;27;20564;-82
2023/09/20 11:13:05;;;;;;;3.27;2.10;;;36.60;1.00;;;;;;5093294;28;20972;-81
2023/09/20 11:15:40;;;;;;;5.60;3.13;;;36.50;1.00;;;;;;5099451;27;20458;-79
2023/09/20 11:18:08;;;;;;;6.67;2.07;;;36.70;1.00;;;;;;5094998;28;20504;-80
2023/09/20 11:20:39;;;;;;;2.10;1.90;;;35.90;1.00;;;;;;5102943;27;20478;-80
2023/09/20 11:23:10;;;;;;;2.20;1.57;;;34.40;1.00;;;;;;5117557;27;20472;-79
2023/09/20 11:25:38;;;;;;;7.53;2.40;;;33.20;1.00;;;;;;5114813;27;20966;-81
2023/09/20 11:28:08;;;;;;;3.00;1.80;;;31.90;1.00;;;;;;5110443;27;20468;-80
2023/09/20 11:30:36;;;;;;;2.17;1.60;;;31.20;1.00;;;;;;5113703;27;20493;-81
2023/09/20 11:33:09;;;;;;;2.67;2.13;;;30.90;1.00;;;;;;5112910;27;20453;-81
2023/09/20 11:35:42;;;;;;;2.00;1.80;;;30.20;1.00;;;;;;5111664;28;20476;-80
2023/09/20 11:38:12;;;;;;;2.63;2.40;;;29.70;1.00;;;;;;5112437;27;20521;-81
2023/09/20 11:40:41;;;;;;;4.33;2.17;;;29.10;1.00;;;;;;5112551;27;20498;-80
2023/09/20 11:43:09;;;;;;;2.67;2.10;;;28.50;1.00;;;;;;5113062;27;20458;-80
2023/09/20 11:45:36;;;;;;;2.97;1.77;;;28.10;1.00;;;;;;5110527;27;20475;-80
2023/09/20 11:48:06;;;;;;;3.47;1.90;;;27.60;1.00;;;;;;5114466;27;20515;-80
2023/09/20 11:50:34;;;;;;;3.00;2.20;;;27.20;1.00;;;;;;5097584;27;20460;-80
2023/09/20 11:53:05;;;;;;;2.90;2.60;;;27.00;1.00;;;;;;5110354;27;20548;-79
2023/09/20 11:55:32;;;;;;;3.10;2.00;;;28.50;1.00;;;;;;5095392;28;20462;-78
2023/09/20 11:58:01;;;;;;;3.60;1.80;;;30.80;1.00;;;;;;5110530;27;20464;-80
2023/09/20 12:00:30;;;;;;;5.13;2.70;;;33.00;1.00;;;;;;5096760;28;20522;-80
2023/09/20 12:02:58;;;;;;;3.70;2.17;;;34.20;1.00;;;;;;5111845;27;20489;-80
2023/09/20 12:05:25;;;;;;;4.40;2.20;;;35.10;1.00;;;;;;5111522;27;20523;-81
2023/09/20 12:07:58;;;;;;;2.87;2.03;;;36.50;1.00;;;;;;5112613;27;20484;-78
2023/09/20 12:10:28;;;;;;;2.93;2.10;;;37.70;1.00;;;;;;5107670;27;20989;-78
2023/09/20 12:12:56;;;;;;;2.53;1.70;;;38.30;1.00;;;;;;5109430;27;20446;-79
2023/09/20 12:15:24;;;;;;;2.80;2.13;;;38.70;1.00;;;;;;5114517;27;20460;-79
2023/09/20 12:17:51;;;;;;;4.77;2.10;;;38.50;1.00;;;;;;5099661;28;20461;-80
2023/09/20 12:20:19;;;;;;;2.23;1.70;;;38.30;1.00;;;;;;5098565;27;20473;-80
2023/09/20 12:22:46;;;;;;;2.67;1.70;;;37.30;1.00;;;;;;5110826;27;20549;-80
2023/09/20 12:25:15;;;;;;;3.63;2.23;;;36.70;1.00;;;;;;5112394;28;20470;-79
2023/09/20 12:27:47;;;;;;;3.03;1.53;;;34.90;1.00;;;;;;5113394;28;20501;-80
2023/09/20 12:30:17;;;;;;;3.23;1.90;;;33.50;1.00;;;;;;5112399;27;20552;-79
2023/09/20 12:32:44;;;;;;;2.70;2.00;;;32.60;1.00;;;;;;5108488;27;20660;-78
2023/09/20 12:35:14;;;;;;;5.17;2.13;;;32.10;1.00;;;;;;5112706;28;20450;-79
2023/09/20 12:37:45;;;;;;;5.83;2.03;;;32.50;1.00;;;;;;5109798;27;20464;-81
2023/09/20 12:40:14;;;;;;;4.03;2.00;;;32.80;1.00;;;;;;5110291;28;20461;-78
2023/09/20 12:42:43;;;;;;;7.00;2.30;;;32.70;1.00;;;;;;5099116;27;20476;-78
2023/09/20 12:45:20;;;;;;;2.60;2.00;;;32.30;1.00;;;;;;5110083;27;20545;-78
2023/09/20 12:47:47;;;;;;;5.40;1.87;;;32.50;1.00;;;;;;5111895;28;20449;-79
2023/09/20 12:50:14;;;;;;;2.80;1.80;;;32.70;1.00;;;;;;5112357;28;20476;-79
2023/09/20 12:52:43;;;;;;;2.57;1.93;;;33.00;1.00;;;;;;5112938;27;20451;-80
2023/09/20 12:55:10;;;;;;;3.23;2.10;;;32.80;1.00;;;;;;5112409;27;20695;-82
2023/09/20 12:57:40;;;;;;;3.97;2.47;;;32.60;1.00;;;;;;5110351;28;20481;-81
2023/09/20 13:00:12;;;;;;;3.57;2.17;;;33.30;1.00;;;;;;5110107;28;20933;-80
2023/09/20 13:02:39;;;;;;;3.53;1.77;;;34.30;1.00;;;;;;5092275;27;20527;-80
2023/09/20 13:05:12;;;;;;;3.63;2.10;;;35.00;1.00;;;;;;5116088;27;20482;-83
2023/09/20 13:07:41;;;;;;;2.63;2.30;;;35.00;1.00;;;;;;5110679;28;20450;-79
2023/09/20 13:10:19;;;;;;;2.60;1.93;;;33.80;1.00;;;;;;5097979;28;20475;-79
2023/09/20 13:12:47;;;;;;;3.57;1.97;;;32.20;1.00;;;;;;5107765;28;20606;-80
2023/09/20 13:15:17;;;;;;;3.43;1.87;;;31.10;1.00;;;;;;5099512;27;20523;-79
2023/09/20 13:17:45;;;;;;;3.77;1.63;;;30.40;1.00;;;;;;5109995;27;20418;-80
2023/09/20 13:20:15;;;;;;;2.33;1.90;;;30.00;1.00;;;;;;5116255;27;20465;-81
2023/09/20 13:22:46;;;;;;;5.20;2.03;;;29.50;1.00;;;;;;5092624;27;20449;-79
2023/09/20 13:25:14;;;;;;;2.00;1.57;;;29.20;1.00;;;;;;5111495;27;20434;-80
2023/09/20 13:27:45;;;;;;;2.73;1.70;;;28.80;1.00;;;;;;5111255;27;20456;-80
2023/09/20 13:30:14;;;;;;;3.20;2.10;;;28.50;1.00;;;;;;5112067;27;20481;-81
2023/09/20 13:32:43;;;;;;;3.97;1.80;;;28.20;1.00;;;;;;5099519;28;20448;-86
2023/09/20 13:35:12;;;;;;;4.20;2.03;;;28.00;1.00;;;;;;5110647;28;20469;-81
2023/09/20 13:37:45;;;;;;;3.00;2.33;;;27.90;1.00;;;;;;5079109;28;21093;-80
2023/09/20 13:40:15;;;;;;;2.83;2.13;;;27.80;1.00;;;;;;5112708;27;20466;-83
2023/09/20 13:42:44;;;;;;;2.30;2.10;;;27.70;1.00;;;;;;5111594;27;20934;-81
2023/09/20 13:45:14;;;;;;;3.63;1.97;;;27.60;1.00;;;;;;5109145;27;20481;-81
2023/09/20 13:47:44;;;;;;;3.00;2.20;;;27.40;1.00;;;;;;5109661;28;20528;-83
2023/09/20 13:50:14;;;;;;;4.93;2.00;;;27.20;1.00;;;;;;5115715;27;20875;-79